createdAt,value
2019-02-15T00:01:45.711Z,102433.32
2019-02-15T00:04:15.161Z,102430.70
2019-02-15T00:06:44.370Z,102424.62
2019-02-15T00:09:13.890Z,102425.94
2019-02-15T00:11:43.170Z,102426.36
2019-02-15T00:14:12.900Z,102416.78
2019-02-15T00:16:42.469Z,102419.86
2019-02-15T00:19:24.528Z,102412.90
2019-02-15T00:21:55.044Z,102415.06
2019-02-15T00:24:24.280Z,102413.34
2019-02-15T00:26:53.549Z,102414.66
2019-02-15T00:29:22.765Z,102413.78
2019-02-15T00:31:52.014Z,102407.70
2019-02-15T00:34:21.260Z,102408.56
2019-02-15T00:36:50.906Z,102408.98
2019-02-15T00:39:20.112Z,102406.81
2019-02-15T00:41:49.388Z,102403.78
2019-02-15T00:44:19.930Z,102405.08
2019-02-15T00:47:05.463Z,102395.98
2019-02-15T00:49:52.928Z,102393.36
2019-02-15T00:52:43.338Z,102392.93
2019-02-15T00:55:31.910Z,102390.75
2019-02-15T00:58:17.823Z,102393.37
2019-02-15T01:01:18.633Z,102391.20
2019-02-15T01:04:11.957Z,102392.50
2019-02-15T01:06:52.485Z,102390.77
2019-02-15T01:09:49.531Z,102388.60
2019-02-15T01:12:29.026Z,102390.33
2019-02-15T01:14:58.401Z,102392.53
2019-02-15T01:17:27.649Z,102391.66
2019-02-15T01:19:56.883Z,102386.88
2019-02-15T01:22:26.538Z,102389.48
2019-02-15T01:24:56.076Z,102389.48
2019-02-15T01:27:34.306Z,102386.88
2019-02-15T01:30:42.218Z,102387.31
2019-02-15T01:33:22.693Z,102382.95
2019-02-15T01:36:09.792Z,102379.48
2019-02-15T01:39:07.254Z,102380.80
2019-02-15T01:41:58.480Z,102369.92
2019-02-15T01:44:49.380Z,102372.55
2019-02-15T01:47:23.143Z,102380.80
2019-02-15T01:49:52.510Z,102369.52
2019-02-15T01:52:24.688Z,102369.52
2019-02-15T01:54:56.036Z,102361.25
2019-02-15T01:57:27.105Z,102363.42
2019-02-15T01:59:56.584Z,102361.25
2019-02-15T02:02:28.515Z,102363.42
2019-02-15T02:04:57.772Z,102359.51
2019-02-15T02:07:27.074Z,102358.64
2019-02-15T02:09:56.303Z,102360.81
2019-02-15T02:12:25.867Z,102353.88
2019-02-15T02:14:55.095Z,102347.34
2019-02-15T02:17:24.306Z,102348.22
2019-02-15T02:19:56.355Z,102339.10
2019-02-15T02:22:25.855Z,102341.27
2019-02-15T02:24:55.314Z,102343.88
2019-02-15T02:27:24.576Z,102346.04
2019-02-15T02:29:53.985Z,102340.84
2019-02-15T02:32:24.617Z,102334.31
2019-02-15T02:34:53.876Z,102339.97
2019-02-15T02:37:23.387Z,102329.09
2019-02-15T02:39:52.614Z,102328.19
2019-02-15T02:42:21.886Z,102324.70
2019-02-15T02:44:51.145Z,102329.55
2019-02-15T02:47:20.676Z,102329.55
2019-02-15T02:49:49.945Z,102326.47
2019-02-15T02:52:19.175Z,102327.38
2019-02-15T02:54:48.387Z,102326.88
2019-02-15T02:57:17.936Z,102337.30
2019-02-15T02:59:47.171Z,102333.84
2019-02-15T03:02:22.025Z,102331.22
2019-02-15T03:04:51.552Z,102323.86
2019-02-15T03:07:20.770Z,102328.63
2019-02-15T03:09:50.046Z,102325.58
2019-02-15T03:12:19.404Z,102326.44
2019-02-15T03:14:49.179Z,102320.80
2019-02-15T03:17:18.930Z,102326.89
2019-02-15T03:19:48.138Z,102324.28
2019-02-15T03:22:17.768Z,102326.89
2019-02-15T03:24:47.083Z,102324.70
2019-02-15T03:27:17.205Z,102328.17
2019-02-15T03:29:46.478Z,102330.34
2019-02-15T03:32:15.748Z,102329.91
2019-02-15T03:34:45.276Z,102329.89
2019-02-15T03:37:33.628Z,102329.48
2019-02-15T03:40:08.252Z,102330.78
2019-02-15T03:42:37.523Z,102329.45
2019-02-15T03:45:06.934Z,102316.01
2019-02-15T03:47:36.444Z,102322.08
2019-02-15T03:50:08.762Z,102325.55
2019-02-15T03:52:38.040Z,102329.03
2019-02-15T03:55:07.286Z,102323.83
2019-02-15T03:57:36.831Z,102319.89
2019-02-15T04:00:11.040Z,102324.66
2019-02-15T04:02:40.544Z,102327.27
2019-02-15T04:05:09.877Z,102322.91
2019-02-15T04:07:39.176Z,102319.89
2019-02-15T04:10:09.362Z,102319.88
2019-02-15T04:12:38.973Z,102328.95
2019-02-15T04:15:09.000Z,102328.08
2019-02-15T04:17:38.361Z,102331.98
2019-02-15T04:20:08.851Z,102328.96
2019-02-15T04:22:38.451Z,102329.81
2019-02-15T04:25:07.835Z,102330.25
2019-02-15T04:27:37.475Z,102333.28
2019-02-15T04:30:09.092Z,102319.39
2019-02-15T04:32:38.447Z,102329.39
2019-02-15T04:35:07.965Z,102322.88
2019-02-15T04:37:37.223Z,102315.04
2019-02-15T04:40:07.505Z,102315.04
2019-02-15T04:42:36.731Z,102325.90
2019-02-15T04:45:06.459Z,102325.90
2019-02-15T04:47:35.907Z,102321.55
2019-02-15T04:50:09.889Z,102321.55
2019-02-15T04:52:39.448Z,102334.12
2019-02-15T04:55:08.709Z,102334.12
2019-02-15T04:57:37.910Z,102334.58
2019-02-15T05:00:07.462Z,102338.87
2019-02-15T05:02:36.985Z,102338.42
2019-02-15T05:05:06.249Z,102340.15
2019-02-15T05:07:35.588Z,102340.15
2019-02-15T05:10:07.170Z,102344.48
2019-02-15T05:12:36.702Z,102338.00
2019-02-15T05:15:06.339Z,102342.33
2019-02-15T05:17:35.599Z,102341.00
2019-02-15T05:20:05.856Z,102341.88
2019-02-15T05:22:35.128Z,102341.87
2019-02-15T05:25:04.700Z,102343.58
2019-02-15T05:27:33.948Z,102339.70
2019-02-15T05:30:05.540Z,102345.30
2019-02-15T05:32:35.049Z,102339.70
2019-02-15T05:35:04.316Z,102339.70
2019-02-15T05:37:33.588Z,102341.83
2019-02-15T05:40:03.539Z,102335.27
2019-02-15T05:42:33.069Z,102340.47
2019-02-15T05:45:04.201Z,102345.72
2019-02-15T05:47:33.329Z,102338.80
2019-02-15T05:50:04.402Z,102338.80
2019-02-15T05:52:33.751Z,102342.70
2019-02-15T05:55:03.342Z,102335.33
2019-02-15T05:57:33.005Z,102342.70
2019-02-15T06:00:04.373Z,102338.37
2019-02-15T06:02:33.337Z,102345.33
2019-02-15T06:05:04.574Z,102349.23
2019-02-15T06:07:34.071Z,102351.44
2019-02-15T06:10:06.301Z,102351.38
2019-02-15T06:12:35.849Z,102353.08
2019-02-15T06:15:14.878Z,102345.70
2019-02-15T06:17:36.909Z,102352.66
2019-02-15T06:20:09.101Z,102352.66
2019-02-15T06:22:38.516Z,102346.97
2019-02-15T06:25:08.050Z,102356.49
2019-02-15T06:27:37.416Z,102353.89
2019-02-15T06:30:06.963Z,102362.98
2019-02-15T06:32:36.584Z,102362.98
2019-02-15T06:35:07.763Z,102361.23
2019-02-15T06:37:37.331Z,102361.23
2019-02-15T06:40:07.994Z,102368.61
2019-02-15T06:42:37.341Z,102369.45
2019-02-15T06:45:07.211Z,102369.42
2019-02-15T06:47:36.810Z,102369.42
2019-02-15T06:50:08.825Z,102376.41
2019-02-15T06:52:38.257Z,102379.88
2019-02-15T06:55:08.533Z,102378.59
2019-02-15T06:57:38.623Z,102378.59
2019-02-15T07:00:34.450Z,102387.27
2019-02-15T07:03:15.631Z,102387.27
2019-02-15T07:05:44.992Z,102382.48
2019-02-15T07:15:33.150Z,102381.61
2019-02-15T07:17:55.221Z,102383.33
2019-02-15T07:20:24.601Z,102383.33
2019-02-15T07:22:54.250Z,102388.53
2019-02-15T07:25:23.529Z,102397.27
2019-02-15T07:27:52.746Z,102397.27
2019-02-15T07:30:22.305Z,102390.34
2019-02-15T07:32:51.600Z,102382.48
2019-02-15T07:35:21.476Z,102382.48
2019-02-15T07:37:52.757Z,102394.28
2019-02-15T07:40:22.062Z,102393.06
2019-02-15T07:42:51.327Z,102393.06
2019-02-15T07:45:22.675Z,102390.06
2019-02-15T07:47:52.251Z,102391.45
2019-02-15T07:50:21.608Z,102386.81
2019-02-15T07:52:51.221Z,102388.16
2019-02-15T07:55:20.761Z,102382.95
2019-02-15T07:57:50.000Z,102375.52
2019-02-15T08:00:19.498Z,102381.45
2019-02-15T08:02:48.793Z,102382.08
2019-02-15T08:05:18.016Z,102379.47
2019-02-15T08:07:47.598Z,102378.74
2019-02-15T08:10:17.240Z,102371.96
2019-02-15T08:12:46.592Z,102359.84
2019-02-15T08:15:16.811Z,102356.75
2019-02-15T08:17:50.320Z,102352.09
2019-02-15T08:20:20.126Z,102345.49
2019-02-15T08:22:49.739Z,102342.81
2019-02-15T08:25:19.162Z,102331.76
2019-02-15T08:27:48.509Z,102333.38
2019-02-15T08:30:18.105Z,102329.52
2019-02-15T08:32:47.493Z,102333.05
2019-02-15T08:35:16.736Z,102324.23
2019-02-15T08:37:46.376Z,102320.08
2019-02-15T08:40:22.622Z,102319.59
2019-02-15T08:42:51.903Z,102325.28
2019-02-15T08:45:21.435Z,102321.37
2019-02-15T08:47:50.712Z,102325.16
2019-02-15T08:50:19.939Z,102324.49
2019-02-15T08:52:49.177Z,102319.64
2019-02-15T08:55:18.523Z,102323.64
2019-02-15T08:57:48.055Z,102325.39
2019-02-15T09:00:17.341Z,102323.29
2019-02-15T09:02:46.668Z,102321.48
2019-02-15T09:05:16.226Z,102319.89
2019-02-15T09:07:45.498Z,102318.92
2019-02-15T09:10:14.965Z,102328.33
2019-02-15T09:12:44.529Z,102319.66
2019-02-15T09:15:16.528Z,102324.19
2019-02-15T09:17:45.855Z,102325.15
2019-02-15T09:20:15.398Z,102327.72
2019-02-15T09:22:44.839Z,102333.21
2019-02-15T09:25:14.187Z,102323.75
2019-02-15T09:28:11.394Z,102324.11
2019-02-15T09:30:40.983Z,102315.63
2019-02-15T09:33:10.576Z,102317.98
2019-02-15T09:35:39.863Z,102313.80
2019-02-15T09:38:09.145Z,102316.66
2019-02-15T09:40:38.751Z,102312.25
2019-02-15T09:43:08.866Z,102310.50
2019-02-15T09:45:38.204Z,102307.77
2019-02-15T09:48:07.733Z,102299.88
2019-02-15T09:50:37.082Z,102305.67
2019-02-15T09:53:06.375Z,102303.14
2019-02-15T09:55:35.916Z,102296.31
2019-02-15T09:58:07.996Z,102300.83
2019-02-15T10:00:37.348Z,102298.83
2019-02-15T10:03:06.918Z,102298.01
2019-02-15T10:05:36.165Z,102294.16
2019-02-15T10:08:08.538Z,102294.08
2019-02-15T10:10:38.074Z,102292.95
2019-02-15T10:13:07.342Z,102284.85
2019-02-15T10:15:36.618Z,102288.88
2019-02-15T10:18:06.873Z,102289.85
2019-02-15T10:20:36.119Z,102291.11
2019-02-15T10:23:05.456Z,102289.76
2019-02-15T10:25:34.996Z,102298.81
2019-02-15T10:28:06.065Z,102294.59
2019-02-15T10:30:35.330Z,102287.98
2019-02-15T10:33:04.696Z,102291.09
2019-02-15T10:35:33.927Z,102288.36
2019-02-15T10:38:06.288Z,102288.05
2019-02-15T10:40:35.508Z,102283.30
2019-02-15T10:43:05.209Z,102280.08
2019-02-15T10:45:35.398Z,102270.68
2019-02-15T10:48:07.490Z,102277.41
2019-02-15T10:50:37.040Z,102266.11
2019-02-15T10:53:06.404Z,102266.14
2019-02-15T10:55:35.658Z,102256.03
2019-02-15T10:58:06.060Z,102256.90
2019-02-15T11:00:35.419Z,102250.13
2019-02-15T11:03:04.967Z,102249.34
2019-02-15T11:05:34.576Z,102241.55
2019-02-15T11:08:06.921Z,102247.36
2019-02-15T11:10:36.213Z,102250.39
2019-02-15T11:13:05.830Z,102244.55
2019-02-15T11:15:35.314Z,102238.61
2019-02-15T11:18:06.106Z,102233.61
2019-02-15T11:20:35.680Z,102234.27
2019-02-15T11:23:05.400Z,102220.96
2019-02-15T11:25:34.732Z,102221.58
2019-02-15T11:28:05.628Z,102221.55
2019-02-15T11:30:35.038Z,102220.73
2019-02-15T11:33:04.957Z,102217.43
2019-02-15T11:35:34.484Z,102213.50
2019-02-15T11:38:04.965Z,102207.05
2019-02-15T11:40:34.278Z,102199.80
2019-02-15T11:43:03.885Z,102203.39
2019-02-15T11:45:33.205Z,102198.20
2019-02-15T11:48:04.253Z,102192.93
2019-02-15T11:50:33.807Z,102190.24
2019-02-15T11:53:03.383Z,102187.45
2019-02-15T11:55:33.013Z,102184.43
2019-02-15T11:58:04.939Z,102182.32
2019-02-15T12:00:35.065Z,102179.33
2019-02-15T12:03:04.580Z,102176.87
2019-02-15T12:05:34.362Z,102171.97
2019-02-15T12:08:06.771Z,102162.91
2019-02-15T12:10:36.058Z,102155.08
2019-02-15T12:13:05.338Z,102146.99
2019-02-15T12:15:34.730Z,102157.66
2019-02-15T12:18:07.634Z,102150.87
2019-02-15T12:20:36.895Z,102147.58
2019-02-15T12:23:06.246Z,102142.63
2019-02-15T12:25:35.854Z,102141.16
2019-02-15T12:28:13.519Z,102134.57
2019-02-15T12:30:42.992Z,102130.26
2019-02-15T12:33:12.574Z,102126.95
2019-02-15T12:35:41.816Z,102124.48
2019-02-15T12:38:11.047Z,102122.02
2019-02-15T12:40:46.826Z,102117.31
2019-02-15T12:43:16.096Z,102113.98
2019-02-15T12:45:45.360Z,102115.67
2019-02-15T12:48:15.141Z,102107.99
2019-02-15T12:50:44.683Z,102105.81
2019-02-15T12:53:14.037Z,102100.49
2019-02-15T12:55:43.806Z,102099.50
2019-02-15T12:58:13.056Z,102096.23
2019-02-15T13:00:42.340Z,102095.45
2019-02-15T13:03:12.164Z,102087.26
2019-02-15T13:05:41.949Z,102082.95
2019-02-15T13:08:11.324Z,102084.78
2019-02-15T13:10:42.109Z,102083.78
2019-02-15T13:13:11.422Z,102079.36
2019-02-15T13:15:40.703Z,102074.81
2019-02-15T13:18:10.358Z,102070.97
2019-02-15T13:20:39.720Z,102072.50
2019-02-15T13:23:09.038Z,102066.31
2019-02-15T13:25:38.645Z,102055.73
2019-02-15T13:28:07.929Z,102049.92
2019-02-15T13:30:37.303Z,102051.97
2019-02-15T13:33:06.879Z,102043.77
2019-02-15T13:35:36.259Z,102038.45
2019-02-15T13:38:08.539Z,102037.53
2019-02-15T13:40:37.858Z,102032.55
2019-02-15T13:43:07.149Z,102031.28
2019-02-15T13:45:36.516Z,102030.97
2019-02-15T13:48:06.149Z,102024.22
2019-02-15T13:50:35.812Z,102021.53
2019-02-15T13:53:05.935Z,102023.36
2019-02-15T13:55:35.212Z,102018.31
2019-02-15T13:58:08.102Z,102018.03
2019-02-15T14:00:37.374Z,102011.36
2019-02-15T14:03:06.808Z,102001.53
2019-02-15T14:05:36.451Z,102002.41
2019-02-15T14:08:08.577Z,102007.64
2019-02-15T14:10:38.042Z,102001.38
2019-02-15T14:13:07.597Z,102003.11
2019-02-15T14:15:37.056Z,102002.53
2019-02-15T14:18:09.158Z,102007.91
2019-02-15T14:20:39.908Z,101999.78
2019-02-15T14:23:09.189Z,101996.08
2019-02-15T14:25:38.505Z,101989.24
2019-02-15T14:28:08.137Z,101995.30
2019-02-15T14:30:37.407Z,101989.69
2019-02-15T14:33:06.832Z,101989.84
2019-02-15T14:35:36.526Z,101989.19
2019-02-15T14:38:06.695Z,101985.20
2019-02-15T14:40:36.094Z,101984.81
2019-02-15T14:43:06.700Z,101987.74
2019-02-15T14:45:35.950Z,101979.64
2019-02-15T14:48:06.051Z,101975.59
2019-02-15T14:50:35.782Z,101977.27
2019-02-15T14:53:05.040Z,101978.76
2019-02-15T14:55:34.450Z,101973.47
2019-02-15T14:58:07.991Z,101972.69
2019-02-15T15:00:37.240Z,101970.09
2019-02-15T15:03:06.657Z,101967.83
2019-02-15T15:05:36.342Z,101966.55
2019-02-15T15:08:08.478Z,101962.77
2019-02-15T15:10:37.778Z,101964.20
2019-02-15T15:13:07.393Z,101953.34
2019-02-15T15:15:36.818Z,101951.48
2019-02-15T15:18:13.206Z,101952.75
2019-02-15T15:20:40.308Z,101946.64
2019-02-15T15:23:09.784Z,101948.92
2019-02-15T15:25:39.186Z,101944.41
2019-02-15T15:28:09.332Z,101947.70
2019-02-15T15:30:38.771Z,101939.84
2019-02-15T15:33:08.250Z,101942.48
2019-02-15T15:35:38.148Z,101937.98
2019-02-15T15:38:07.644Z,101931.18
2019-02-15T15:40:37.762Z,101931.14
2019-02-15T15:43:08.489Z,101933.55
2019-02-15T15:45:37.946Z,101935.66
2019-02-15T15:48:07.645Z,101933.92
2019-02-15T15:50:37.382Z,101934.70
2019-02-15T15:53:07.891Z,101931.89
2019-02-15T15:55:37.701Z,101925.52
2019-02-15T15:58:08.852Z,101920.92
2019-02-15T16:00:39.312Z,101925.27
2019-02-15T16:03:08.806Z,101923.69
2019-02-15T16:05:39.461Z,101924.71
2019-02-15T16:08:08.990Z,101921.89
2019-02-15T16:10:38.539Z,101919.98
2019-02-15T16:13:08.208Z,101923.38
2019-02-15T16:15:37.690Z,101925.00
2019-02-15T16:18:07.375Z,101920.95
2019-02-15T16:20:37.047Z,101921.15
2019-02-15T16:23:06.731Z,101917.28
2019-02-15T16:25:36.212Z,101920.54
2019-02-15T16:28:09.496Z,101914.95
2019-02-15T16:30:39.029Z,101913.28
2019-02-15T16:33:10.505Z,101911.84
2019-02-15T16:35:40.357Z,101913.44
2019-02-15T16:38:09.973Z,101910.66
2019-02-15T16:40:39.546Z,101912.48
2019-02-15T16:43:09.390Z,101913.52
2019-02-15T16:45:38.955Z,101920.38
2019-02-15T16:48:08.654Z,101917.39
2019-02-15T16:50:39.885Z,101920.80
2019-02-15T16:53:09.338Z,101916.34
2019-02-15T16:55:38.951Z,101923.34
2019-02-15T16:58:09.445Z,101924.03
2019-02-15T17:00:40.002Z,101920.08
2019-02-15T17:03:10.090Z,101929.70
2019-02-15T17:05:40.237Z,101923.44
2019-02-15T17:08:10.235Z,101922.34
2019-02-15T17:10:39.938Z,101917.33
2019-02-15T17:13:10.148Z,101917.20
2019-02-15T17:15:39.860Z,101924.59
2019-02-15T17:18:10.016Z,101930.23
2019-02-15T17:20:40.045Z,101925.31
2019-02-15T17:23:09.826Z,101925.56
2019-02-15T17:25:39.527Z,101925.36
2019-02-15T17:28:10.998Z,101927.94
2019-02-15T17:30:40.778Z,101921.86
2019-02-15T17:33:10.502Z,101929.19
2019-02-15T17:35:40.184Z,101928.91
2019-02-15T17:38:10.404Z,101925.65
2019-02-15T17:40:40.634Z,101925.33
2019-02-15T17:43:10.394Z,101928.14
2019-02-15T17:45:47.906Z,101919.18
2019-02-15T17:48:20.659Z,101925.17
2019-02-15T17:50:52.592Z,101918.85
2019-02-15T17:53:25.715Z,101915.98
2019-02-15T17:55:57.820Z,101913.20
2019-02-15T17:58:30.086Z,101916.52
2019-02-15T18:01:06.876Z,101917.64
2019-02-15T18:03:41.493Z,101914.88
2019-02-15T18:06:14.234Z,101913.80
2019-02-15T18:08:46.633Z,101913.92
2019-02-15T18:11:19.076Z,101914.47
2019-02-15T18:16:14.203Z,101900.98
2019-02-15T18:18:43.878Z,101905.09
2019-02-15T18:21:13.891Z,101902.55
2019-02-15T18:23:45.031Z,101903.73
2019-02-15T18:26:14.828Z,101904.82
2019-02-15T18:28:44.559Z,101900.45
2019-02-15T18:31:16.417Z,101905.42
2019-02-15T18:33:45.984Z,101907.73
2019-02-15T18:36:15.615Z,101910.58
2019-02-15T18:38:45.910Z,101904.63
2019-02-15T18:41:15.667Z,101907.30
2019-02-15T18:43:45.949Z,101911.75
2019-02-15T18:46:16.171Z,101905.80
2019-02-15T18:48:45.887Z,101902.37
2019-02-15T18:51:16.640Z,101901.56
2019-02-15T18:53:46.785Z,101901.77
2019-02-15T18:56:16.561Z,101894.47
2019-02-15T18:58:46.325Z,101901.62
2019-02-15T19:01:17.011Z,101899.02
2019-02-15T19:03:47.053Z,101894.83
2019-02-15T19:06:19.565Z,101897.66
2019-02-15T19:08:50.744Z,101892.91
2019-02-15T19:11:20.779Z,101892.48
2019-02-15T19:13:50.485Z,101888.72
2019-02-15T19:16:21.147Z,101894.06
2019-02-15T19:18:50.901Z,101888.08
2019-02-15T19:21:20.761Z,101878.17
2019-02-15T19:23:53.981Z,101882.27
2019-02-15T19:26:23.746Z,101884.53
2019-02-15T19:28:53.532Z,101879.47
2019-02-15T19:31:24.247Z,101872.53
2019-02-15T19:33:54.452Z,101879.30
2019-02-15T19:36:25.458Z,101871.86
2019-02-15T19:38:55.944Z,101868.09
2019-02-15T19:41:25.730Z,101870.74
2019-02-15T19:43:56.676Z,101859.84
2019-02-15T19:46:27.653Z,101861.34
2019-02-15T19:49:01.157Z,101863.61
2019-02-15T19:51:31.292Z,101867.19
2019-02-15T19:54:03.540Z,101858.10
2019-02-15T19:56:33.908Z,101872.63
2019-02-15T19:59:04.032Z,101863.68
2019-02-15T20:01:34.947Z,101865.08
2019-02-15T20:04:06.426Z,101863.95
2019-02-15T20:06:39.978Z,101856.72
2019-02-15T20:09:10.908Z,101862.03
2019-02-15T20:11:40.965Z,101856.91
2019-02-15T20:14:11.528Z,101858.79
2019-02-15T20:16:41.625Z,101864.59
2019-02-15T20:19:11.437Z,101862.16
2019-02-15T20:21:41.525Z,101860.47
2019-02-15T20:24:12.386Z,101850.53
2019-02-15T20:26:42.457Z,101848.90
2019-02-15T20:29:12.772Z,101852.47
2019-02-15T20:31:45.407Z,101846.50
2019-02-15T20:34:15.138Z,101847.89
2019-02-15T20:36:45.097Z,101847.34
2019-02-15T20:39:15.267Z,101849.11
2019-02-15T20:41:45.491Z,101850.61
2019-02-15T20:44:15.944Z,101851.09
2019-02-15T20:46:45.938Z,101851.58
2019-02-15T20:49:16.360Z,101854.77
2019-02-15T20:51:47.134Z,101851.81
2019-02-15T20:54:18.187Z,101854.98
2019-02-15T20:56:48.426Z,101853.36
2019-02-15T20:59:20.268Z,101861.77
2019-02-15T21:01:49.947Z,101858.23
2019-02-15T21:04:20.020Z,101855.98
2019-02-15T21:06:49.912Z,101856.47
2019-02-15T21:09:22.647Z,101858.34
2019-02-15T21:11:53.859Z,101860.14
2019-02-15T21:14:25.996Z,101853.74
2019-02-15T21:16:56.959Z,101861.77
2019-02-15T21:19:31.164Z,101860.94
2019-02-15T21:22:03.998Z,101861.88
2019-02-15T21:24:34.905Z,101858.91
2019-02-15T21:27:05.530Z,101858.69
2019-02-15T21:29:37.754Z,101861.45
2019-02-15T21:32:10.387Z,101851.95
2019-02-15T21:34:40.363Z,101854.13
2019-02-15T21:37:10.054Z,101856.36
2019-02-15T21:39:40.892Z,101858.61
2019-02-15T21:42:12.624Z,101862.15
2019-02-15T21:44:45.360Z,101862.59
2019-02-15T21:47:15.462Z,101864.05
2019-02-15T21:49:45.661Z,101858.48
2019-02-15T21:52:16.016Z,101857.16
2019-02-15T21:54:49.451Z,101860.70
2019-02-15T21:57:19.331Z,101856.91
2019-02-15T21:59:48.949Z,101857.84
2019-02-15T22:02:20.293Z,101858.36
2019-02-15T22:04:49.978Z,101860.25
2019-02-15T22:07:19.903Z,101854.63
2019-02-15T22:09:49.927Z,101848.60
2019-02-15T22:12:19.357Z,101847.97
2019-02-15T22:14:49.785Z,101841.95
2019-02-15T22:17:20.634Z,101838.55
2019-02-15T22:19:50.738Z,101829.03
2019-02-15T22:22:20.245Z,101836.67
2019-02-15T22:24:50.143Z,101831.44
2019-02-15T22:27:19.518Z,101828.30
2019-02-15T22:29:48.828Z,101830.83
2019-02-15T22:32:18.414Z,101830.78
2019-02-15T22:34:48.138Z,101832.13
2019-02-15T22:37:17.442Z,101836.11
2019-02-15T22:39:46.681Z,101831.70
2019-02-15T22:42:16.308Z,101833.98
2019-02-15T22:44:45.621Z,101830.05
2019-02-15T22:47:17.148Z,101833.14
2019-02-15T22:49:49.212Z,101830.65
2019-02-15T22:52:18.543Z,101828.96
2019-02-15T22:54:47.747Z,101828.60
2019-02-15T22:57:16.991Z,101828.21
2019-02-15T22:59:46.642Z,101826.64
2019-02-15T23:02:15.956Z,101830.56
2019-02-15T23:04:45.191Z,101829.38
2019-02-15T23:07:14.952Z,101834.19
2019-02-15T23:09:44.177Z,101833.70
2019-02-15T23:12:13.425Z,101829.50
2019-02-15T23:14:42.986Z,101827.77
2019-02-15T23:17:13.270Z,101826.19
2019-02-15T23:19:42.962Z,101824.75
2019-02-15T23:22:18.456Z,101820.39
2019-02-15T23:24:47.903Z,101824.75
2019-02-15T23:27:17.212Z,101817.73
2019-02-15T23:29:47.046Z,101822.05
2019-02-15T23:32:16.223Z,101822.45
2019-02-15T23:34:45.449Z,101826.89
2019-02-15T23:37:16.361Z,101821.70
2019-02-15T23:39:46.060Z,101822.61
2019-02-15T23:42:15.697Z,101821.34
2019-02-15T23:44:45.017Z,101815.77
2019-02-15T23:47:14.409Z,101831.10
2019-02-15T23:49:43.688Z,101824.56
2019-02-15T23:52:13.621Z,101824.61
2019-02-15T23:54:42.874Z,101825.39
2019-02-15T23:57:12.319Z,101826.30
2019-02-15T23:59:41.969Z,101824.52
